Time;durP1;ratioP1;P1;durP2;ratioP2;P2;SDS_P1;SDS_P2;PMS_P1;PMS_P2;Temp;Humidity;BMP_temperature;BMP_pressure;BME280_temperature;BME280_humidity;BME280_pressure;Samples;Min_cycle;Max_cycle;Signal;HPM_P1;HPM_P2
2022/05/02 00:02:15;;;;;;;35.60;22.52;;;;;;;10.43;78.56;96375.69;5088528;28;20040;-78
2022/05/02 00:04:41;;;;;;;36.63;22.13;;;;;;;10.40;78.73;96372.81;5089267;28;20518;-76
2022/05/02 00:07:09;;;;;;;37.38;22.85;;;;;;;10.37;78.84;96370.69;5088906;28;20414;-76
2022/05/02 00:09:36;;;;;;;38.67;23.63;;;;;;;10.33;79.45;96367.78;5089179;28;20067;-77
2022/05/02 00:12:03;;;;;;;39.72;23.58;;;;;;;10.34;79.34;96365.91;5088747;28;20063;-77
2022/05/02 00:14:29;;;;;;;40.50;23.65;;;;;;;10.33;79.86;96369.72;5088841;28;20051;-76
2022/05/02 00:16:56;;;;;;;41.80;23.63;;;;;;;10.34;80.11;96369.44;5092932;28;20040;-76
2022/05/02 00:19:22;;;;;;;39.17;22.42;;;;;;;10.37;80.58;96362.53;5092207;28;20048;-76
2022/05/02 00:21:49;;;;;;;37.38;22.30;;;;;;;10.39;80.28;96361.13;5093624;28;20039;-78
2022/05/02 00:24:17;;;;;;;40.33;23.58;;;;;;;10.39;80.21;96354.88;5092266;28;20051;-76
2022/05/02 00:26:43;;;;;;;39.15;22.58;;;;;;;10.40;80.01;96362.72;5093452;28;20051;-76
2022/05/02 00:29:10;;;;;;;38.65;22.15;;;;;;;10.38;79.75;96350.53;5092483;28;20045;-77
2022/05/02 00:31:36;;;;;;;36.83;21.40;;;;;;;10.36;79.53;96358.22;5093229;28;20051;-77
2022/05/02 00:34:03;;;;;;;35.05;21.15;;;;;;;10.34;79.21;96357.75;5092586;28;20383;-76
2022/05/02 00:36:29;;;;;;;40.03;21.40;;;;;;;10.32;78.67;96362.69;5092562;28;20372;-76
2022/05/02 00:38:56;;;;;;;36.38;22.27;;;;;;;10.29;78.71;96358.69;5093579;28;20047;-76
2022/05/02 00:41:24;;;;;;;39.08;22.33;;;;;;;10.26;79.01;96361.22;5091446;28;20040;-77
2022/05/02 00:43:50;;;;;;;37.25;21.60;;;;;;;10.18;79.14;96344.53;5093344;28;20083;-77
2022/05/02 00:46:18;;;;;;;38.97;22.17;;;;;;;10.14;79.06;96349.00;5091809;28;20052;-79
2022/05/02 00:48:45;;;;;;;44.65;23.25;;;;;;;10.09;79.25;96348.34;5093108;28;20093;-77
2022/05/02 00:51:12;;;;;;;44.13;23.38;;;;;;;10.04;79.19;96343.84;5092347;28;20036;-77
2022/05/02 00:53:39;;;;;;;48.22;25.20;;;;;;;9.98;79.25;96342.38;5092283;28;20040;-76
2022/05/02 00:56:06;;;;;;;43.90;23.83;;;;;;;9.94;79.73;96350.34;5092202;28;20044;-76
2022/05/02 00:58:35;;;;;;;42.33;23.15;;;;;;;9.91;80.50;96342.81;5092330;28;20157;-77
2022/05/02 01:01:03;;;;;;;41.70;23.23;;;;;;;9.90;80.24;96346.66;5092417;28;20072;-76
2022/05/02 01:03:30;;;;;;;39.25;22.13;;;;;;;9.86;80.47;96340.22;5091895;28;20051;-78
2022/05/02 01:08:41;;;;;;;45.03;23.85;;;;;;;9.81;79.75;96334.91;5091829;28;20101;-77
2022/05/02 01:11:08;;;;;;;50.20;24.45;;;;;;;9.77;79.76;96336.69;5091693;28;20044;-76
2022/05/02 01:13:38;;;;;;;43.78;23.67;;;;;;;9.75;79.95;96332.66;5091831;28;20051;-78
2022/05/02 01:16:13;;;;;;;43.58;22.75;;;;;;;9.75;79.99;96335.38;5091764;28;20043;-77
2022/05/02 01:18:40;;;;;;;38.95;21.40;;;;;;;9.74;80.07;96331.88;5092445;28;20047;-76
2022/05/02 01:21:14;;;;;;;42.60;23.23;;;;;;;9.74;79.71;96320.19;5090847;28;20047;-77
2022/05/02 01:23:41;;;;;;;48.58;25.10;;;;;;;9.71;79.95;96323.50;5092530;28;20490;-77
2022/05/02 01:26:08;;;;;;;44.55;22.95;;;;;;;9.66;79.79;96319.84;5090790;28;20048;-76
2022/05/02 01:28:41;;;;;;;50.75;23.40;;;;;;;9.61;79.85;96317.25;5091216;28;20055;-78
2022/05/02 01:31:07;;;;;;;43.05;22.65;;;;;;;9.58;79.78;96315.16;5091392;28;20505;-76
2022/05/02 01:33:35;;;;;;;46.08;22.90;;;;;;;9.56;79.69;96311.97;5091975;28;20048;-79
2022/05/02 01:36:01;;;;;;;42.33;22.42;;;;;;;9.54;79.92;96306.00;5091650;28;20126;-76
2022/05/02 01:38:29;;;;;;;41.53;24.00;;;;;;;9.50;79.79;96305.06;5091655;28;20044;-77
2022/05/02 01:40:56;;;;;;;44.75;23.67;;;;;;;9.48;80.12;96303.75;5091874;28;20044;-76
2022/05/02 01:43:22;;;;;;;42.15;23.27;;;;;;;9.45;80.44;96307.06;5090436;28;20044;-77
2022/05/02 01:45:49;;;;;;;37.50;21.40;;;;;;;9.41;80.55;96307.72;5092081;28;20044;-77
2022/05/02 01:48:16;;;;;;;39.90;23.67;;;;;;;9.43;80.66;96303.88;5089601;28;20047;-76
2022/05/02 01:50:42;;;;;;;37.92;23.30;;;;;;;9.40;80.24;96305.31;5087558;28;20074;-76
2022/05/02 01:53:09;;;;;;;36.90;22.10;;;;;;;9.32;79.81;96303.34;5085338;28;20051;-77
2022/05/02 01:55:36;;;;;;;39.55;23.00;;;;;;;9.29;79.74;96304.78;5087459;28;20055;-77
2022/05/02 01:58:03;;;;;;;40.45;23.05;;;;;;;9.29;79.73;96299.34;5086769;28;20076;-76
2022/05/02 02:00:29;;;;;;;39.00;22.58;;;;;;;9.25;79.58;96292.13;5087104;28;20047;-76
2022/05/02 02:02:56;;;;;;;43.33;24.00;;;;;;;9.20;79.60;96294.97;5087336;28;20040;-77
2022/05/02 02:08:07;;;;;;;44.42;23.42;;;;;;;9.21;79.58;96297.38;5087141;28;20059;-76
2022/05/02 02:10:34;;;;;;;40.70;22.40;;;;;;;9.20;79.81;96303.13;5086244;28;20052;-76
2022/05/02 02:13:02;;;;;;;44.13;21.90;;;;;;;9.14;79.73;96295.09;5086578;28;20048;-76
2022/05/02 02:15:29;;;;;;;40.45;21.38;;;;;;;9.10;79.73;96302.25;5086378;28;20387;-80
2022/05/02 02:17:55;;;;;;;39.15;21.98;;;;;;;9.07;79.47;96312.91;5086677;28;20047;-75
2022/05/02 02:20:22;;;;;;;40.08;23.10;;;;;;;9.03;79.82;96307.31;5086197;28;20063;-77
2022/05/02 02:22:48;;;;;;;40.65;21.25;;;;;;;8.98;79.63;96303.91;5086256;28;20055;-77
2022/05/02 02:25:15;;;;;;;39.53;20.50;;;;;;;8.91;79.36;96309.78;5086128;28;20044;-76
2022/05/02 02:27:42;;;;;;;41.33;21.75;;;;;;;8.88;79.49;96310.41;5086147;28;20054;-76
2022/05/02 02:30:11;;;;;;;35.00;20.45;;;;;;;8.86;79.54;96304.47;5086664;28;20051;-76
2022/05/02 02:32:38;;;;;;;37.65;20.33;;;;;;;8.81;79.13;96313.53;5086118;28;20040;-77
2022/05/02 02:35:05;;;;;;;38.47;20.50;;;;;;;8.75;79.34;96314.75;5086404;28;20051;-76
2022/05/02 02:37:31;;;;;;;34.60;19.80;;;;;;;8.73;79.00;96317.00;5085807;28;20048;-75
2022/05/02 02:39:58;;;;;;;37.67;18.83;;;;;;;8.68;79.37;96316.31;5085963;28;20036;-76
2022/05/02 02:42:25;;;;;;;35.13;18.70;;;;;;;8.63;79.30;96312.59;5085309;28;20048;-76
2022/05/02 02:44:51;;;;;;;33.95;17.45;;;;;;;8.62;79.19;96313.72;5086355;28;20051;-76
2022/05/02 02:47:19;;;;;;;33.30;18.70;;;;;;;8.60;79.37;96326.75;5085751;28;20056;-76
2022/05/02 02:49:46;;;;;;;38.75;19.25;;;;;;;8.58;79.16;96318.13;5085787;28;20048;-76
2022/05/02 02:52:12;;;;;;;30.80;17.05;;;;;;;8.53;79.22;96320.97;5087209;28;20044;-75
2022/05/02 02:54:39;;;;;;;33.72;18.20;;;;;;;8.49;79.35;96319.97;5089375;28;20055;-76
2022/05/02 02:57:06;;;;;;;33.70;18.90;;;;;;;8.44;79.63;96321.97;5090318;28;20051;-76
2022/05/02 02:59:32;;;;;;;35.65;17.98;;;;;;;8.43;79.50;96312.25;5089917;28;20043;-76
2022/05/02 03:01:59;;;;;;;34.35;17.60;;;;;;;8.41;79.70;96315.28;5090393;28;20044;-76
2022/05/02 03:07:12;;;;;;;28.17;18.65;;;;;;;8.30;79.72;96311.94;5089597;28;20409;-75
2022/05/02 03:09:39;;;;;;;26.90;18.90;;;;;;;8.28;79.86;96316.84;5090605;28;20117;-75
2022/05/02 03:12:06;;;;;;;29.70;17.00;;;;;;;8.23;80.06;96308.81;5088825;28;20059;-75
2022/05/02 03:14:33;;;;;;;31.23;17.63;;;;;;;8.18;80.40;96303.50;5090497;28;20040;-76
2022/05/02 03:17:00;;;;;;;28.33;16.55;;;;;;;8.18;80.42;96308.94;5089358;28;20044;-76
2022/05/02 03:19:28;;;;;;;26.90;16.35;;;;;;;8.11;80.23;96303.13;5090456;28;20051;-76
2022/05/02 03:21:55;;;;;;;24.33;15.48;;;;;;;8.08;80.59;96299.09;5089344;28;20048;-76
2022/05/02 03:24:21;;;;;;;27.60;15.13;;;;;;;8.06;80.59;96304.03;5089489;28;20048;-76
2022/05/02 03:26:48;;;;;;;28.25;15.98;;;;;;;8.10;80.77;96302.31;5089745;28;20048;-76
2022/05/02 03:29:14;;;;;;;28.05;16.20;;;;;;;8.05;80.59;96302.44;5089114;28;20052;-75
2022/05/02 03:31:41;;;;;;;30.60;16.58;;;;;;;8.02;80.95;96300.31;5089844;28;20051;-76
2022/05/02 03:34:07;;;;;;;29.13;16.80;;;;;;;8.00;80.82;96294.41;5088943;28;20043;-75
2022/05/02 03:36:35;;;;;;;25.27;15.00;;;;;;;7.94;80.49;96298.31;5090109;28;20052;-75
2022/05/02 03:39:02;;;;;;;27.52;15.52;;;;;;;7.85;80.43;96292.00;5088405;28;20036;-75
2022/05/02 03:41:29;;;;;;;27.98;15.77;;;;;;;7.82;80.41;96298.00;5086028;28;20039;-76
2022/05/02 03:43:55;;;;;;;30.13;16.55;;;;;;;7.80;80.44;96295.59;5089048;28;20032;-76
2022/05/02 03:46:22;;;;;;;29.95;16.25;;;;;;;7.78;80.43;96297.03;5083671;28;20059;-75
2022/05/02 03:48:48;;;;;;;26.95;15.48;;;;;;;7.73;80.88;96292.50;5089710;28;20040;-75
2022/05/02 03:51:15;;;;;;;28.00;15.52;;;;;;;7.70;80.91;96295.00;5088282;28;20051;-76
2022/05/02 03:53:43;;;;;;;28.35;15.68;;;;;;;7.72;80.89;96290.88;5089516;28;20048;-76
2022/05/02 03:56:09;;;;;;;25.83;14.52;;;;;;;7.73;80.48;96291.69;5088905;28;20040;-75
2022/05/02 03:58:36;;;;;;;25.90;15.32;;;;;;;7.76;80.43;96288.38;5089652;28;20082;-76
2022/05/02 04:01:02;;;;;;;26.50;15.27;;;;;;;7.81;80.43;96289.06;5088489;28;20036;-78
2022/05/02 04:03:29;;;;;;;25.05;15.02;;;;;;;7.86;80.63;96288.16;5089768;28;20040;-75
2022/05/02 04:05:55;;;;;;;23.10;13.43;;;;;;;7.90;80.60;96291.88;5088953;28;20044;-75
2022/05/02 04:08:22;;;;;;;25.15;14.38;;;;;;;7.90;80.67;96286.47;5089292;28;20056;-77
2022/05/02 04:10:49;;;;;;;24.35;14.10;;;;;;;7.92;80.53;96288.88;5088935;28;20044;-75
2022/05/02 04:13:16;;;;;;;24.50;14.02;;;;;;;7.96;80.54;96287.16;5088749;28;20127;-77
2022/05/02 04:15:42;;;;;;;23.13;13.70;;;;;;;7.96;80.45;96285.25;5089149;28;20463;-76
2022/05/02 04:18:09;;;;;;;23.08;13.32;;;;;;;7.95;80.43;96289.06;5088183;28;20040;-76
2022/05/02 04:20:35;;;;;;;23.30;13.00;;;;;;;7.95;79.94;96286.38;5089268;28;20498;-76
2022/05/02 04:23:02;;;;;;;28.33;14.65;;;;;;;8.01;80.01;96287.84;5088483;28;20070;-75
2022/05/02 04:25:28;;;;;;;25.08;13.25;;;;;;;8.06;79.89;96289.66;5089644;28;20428;-76
2022/05/02 04:27:56;;;;;;;25.15;14.15;;;;;;;8.07;79.64;96292.06;5088543;28;20048;-75
2022/05/02 04:30:23;;;;;;;24.10;13.63;;;;;;;8.11;79.53;96290.34;5089593;28;20044;-76
2022/05/02 04:32:49;;;;;;;25.58;14.18;;;;;;;8.09;79.44;96287.16;5088504;28;20051;-75
2022/05/02 04:35:15;;;;;;;27.90;14.82;;;;;;;8.18;79.50;96284.50;5088971;28;20040;-76
2022/05/02 04:37:42;;;;;;;29.23;13.77;;;;;;;8.21;79.21;96281.22;5088842;28;20032;-75
2022/05/02 04:40:09;;;;;;;27.83;14.85;;;;;;;8.27;78.75;96284.59;5088514;28;20044;-76
2022/05/02 04:42:37;;;;;;;27.08;14.38;;;;;;;8.27;79.02;96284.59;5088682;28;20441;-75
2022/05/02 04:45:06;;;;;;;28.95;15.40;;;;;;;8.25;79.28;96286.84;5088470;28;20040;-78
2022/05/02 04:47:33;;;;;;;27.00;14.77;;;;;;;8.28;79.29;96284.28;5088945;28;20036;-76
2022/05/02 04:49:59;;;;;;;28.42;14.93;;;;;;;8.30;79.44;96283.97;5088482;28;20040;-76
2022/05/02 04:52:25;;;;;;;28.92;16.00;;;;;;;8.29;79.26;96282.38;5089150;28;20391;-75
2022/05/02 04:54:52;;;;;;;25.77;14.63;;;;;;;8.34;79.40;96284.97;5088520;28;20036;-77
2022/05/02 04:57:18;;;;;;;27.52;14.18;;;;;;;8.33;79.37;96283.38;5088967;28;20047;-76
2022/05/02 04:59:45;;;;;;;28.50;15.05;;;;;;;8.31;78.95;96285.63;5088403;28;20040;-76
2022/05/02 05:02:13;;;;;;;32.67;16.48;;;;;;;8.35;79.46;96286.59;5090402;28;20059;-75
2022/05/02 05:04:39;;;;;;;30.35;15.48;;;;;;;8.42;79.41;96281.59;5091915;28;20039;-75
2022/05/02 05:07:06;;;;;;;31.80;15.45;;;;;;;8.48;79.61;96285.78;5091969;28;20040;-77
2022/05/02 05:09:32;;;;;;;26.48;14.55;;;;;;;8.58;79.72;96280.13;5092666;28;20048;-76
2022/05/02 05:12:08;;;;;;;33.53;16.30;;;;;;;8.67;79.62;96261.22;5091524;28;20063;-75
2022/05/02 05:17:44;;;;;;;30.40;15.02;;;;;;;8.91;79.60;96266.31;5091025;28;20062;-77
2022/05/02 05:20:19;;;;;;;34.80;16.60;;;;;;;8.95;79.67;96261.09;5091804;28;20040;-76
2022/05/02 05:23:01;;;;;;;32.15;15.50;;;;;;;8.97;79.39;96262.38;5091704;28;20043;-76
2022/05/02 05:25:42;;;;;;;36.05;16.58;;;;;;;8.81;79.14;96261.94;5090894;28;20049;-75
2022/05/02 05:28:35;;;;;;;31.30;15.95;;;;;;;8.85;78.84;96257.50;5092132;28;20044;-76
2022/05/02 05:31:18;;;;;;;30.57;16.10;;;;;;;8.93;78.91;96266.00;5091210;28;20113;-75
2022/05/02 05:33:54;;;;;;;37.28;17.00;;;;;;;8.73;80.09;96270.03;5091738;28;20490;-75
2022/05/02 05:36:38;;;;;;;30.63;15.82;;;;;;;8.76;80.16;96259.34;5091687;28;21503;-75
2022/05/02 05:39:05;;;;;;;;;;;;;;;8.80;80.36;96264.97;5091365;28;20690;-74
2022/05/02 05:41:45;;;;;;;38.55;17.73;;;;;;;8.86;80.58;96263.72;5092331;28;19920;-75
2022/05/02 05:44:32;;;;;;;37.60;17.30;;;;;;;8.96;80.35;96263.47;5090717;28;20040;-75
2022/05/02 05:47:19;;;;;;;36.63;16.52;;;;;;;9.09;80.72;96262.63;5091746;28;20051;-75
2022/05/02 05:49:59;;;;;;;33.65;16.15;;;;;;;9.25;81.11;96254.09;5091782;28;20036;-76
2022/05/02 05:52:41;;;;;;;39.17;17.83;;;;;;;9.34;80.92;96268.50;5090584;28;20384;-76
2022/05/02 05:55:16;;;;;;;34.55;16.58;;;;;;;9.45;80.84;96267.13;5091637;28;20040;-78
2022/05/02 05:57:49;;;;;;;38.92;17.23;;;;;;;9.56;80.43;96265.75;5091361;28;20059;-76
2022/05/02 06:00:16;;;;;;;;;;;;;;;9.67;80.49;96272.50;5091481;28;20068;-75
2022/05/02 06:03:02;;;;;;;35.05;17.83;;;;;;;9.71;80.34;96266.41;5091141;28;20382;-75
2022/05/02 06:05:30;;;;;;;40.90;18.40;;;;;;;9.85;80.42;96264.41;5090880;28;20055;-74
2022/05/02 06:07:57;;;;;;;37.17;18.25;;;;;;;9.98;80.43;96265.41;5091741;28;20036;-75
2022/05/02 06:10:25;;;;;;;35.17;16.60;;;;;;;10.17;80.51;96268.63;5090122;28;20051;-75
2022/05/02 06:12:53;;;;;;;35.03;17.55;;;;;;;10.31;80.35;96268.53;5090776;28;20044;-77
2022/05/02 06:20:52;;;;;;;34.22;16.35;;;;;;;10.71;78.52;96272.75;5091411;28;20047;-77
2022/05/02 06:23:19;;;;;;;36.70;17.83;;;;;;;10.81;77.82;96281.72;5089876;28;20071;-75
2022/05/02 06:25:49;;;;;;;43.30;19.85;;;;;;;10.83;76.88;96279.47;5091406;28;20040;-76
2022/05/02 06:28:17;;;;;;;40.60;20.30;;;;;;;10.85;76.47;96277.22;5089982;28;20040;-76
2022/05/02 06:30:44;;;;;;;38.42;19.88;;;;;;;10.89;76.25;96283.63;5091406;28;20052;-75
2022/05/02 06:33:12;;;;;;;39.13;19.88;;;;;;;10.94;76.26;96275.28;5089884;28;20047;-76
2022/05/02 06:35:52;;;;;;;45.20;20.80;;;;;;;10.95;76.61;96279.59;5090862;28;20529;-76
2022/05/02 06:38:34;;;;;;;38.95;19.88;;;;;;;11.01;76.69;96278.31;5090222;28;20056;-76
2022/05/02 06:41:15;;;;;;;46.08;20.70;;;;;;;11.12;77.19;96276.88;5090136;28;20444;-76
2022/05/02 06:43:52;;;;;;;43.72;20.92;;;;;;;11.24;77.16;96274.28;5091156;28;20040;-75
2022/05/02 06:46:21;;;;;;;42.53;20.83;;;;;;;11.33;77.55;96276.16;5089405;28;20051;-76
2022/05/02 06:48:51;;;;;;;40.80;20.85;;;;;;;11.47;77.96;96277.59;5090775;28;20062;-75
2022/05/02 06:51:23;;;;;;;35.33;19.95;;;;;;;11.59;77.57;96271.47;5089741;28;20109;-76
2022/05/02 06:54:07;;;;;;;37.37;20.73;;;;;;;11.68;76.82;96269.50;5090453;28;20044;-75
2022/05/02 06:56:42;;;;;;;41.83;19.88;;;;;;;11.85;76.20;96265.13;5090505;28;20047;-76
2022/05/02 06:59:25;;;;;;;40.22;22.35;;;;;;;11.89;75.25;96266.06;5089132;28;20047;-76
2022/05/02 07:01:57;;;;;;;40.78;21.30;;;;;;;11.94;74.96;96257.69;5091022;28;20127;-75
2022/05/02 07:04:42;;;;;;;40.10;22.92;;;;;;;11.93;74.11;96256.09;5089271;28;20040;-76
2022/05/02 07:07:23;;;;;;;49.90;25.33;;;;;;;11.91;72.49;96256.44;5089485;28;20209;-76
2022/05/02 07:09:57;;;;;;;49.83;23.83;;;;;;;11.98;72.65;96253.19;5090451;28;20067;-76
2022/05/02 07:12:25;;;;;;;43.55;22.25;;;;;;;12.02;74.25;96251.41;5088937;28;20561;-76
2022/05/02 07:15:10;;;;;;;41.58;22.92;;;;;;;12.18;73.81;96251.63;5090546;28;20047;-75
2022/05/02 07:17:53;;;;;;;38.72;21.10;;;;;;;12.27;74.60;96255.13;5088634;28;20043;-76
2022/05/02 07:20:23;;;;;;;39.35;20.55;;;;;;;12.46;73.94;96254.66;5089554;28;20044;-76
2022/05/02 07:23:07;;;;;;;43.88;23.65;;;;;;;12.58;74.63;96251.19;5089612;28;20040;-76
2022/05/02 07:25:36;;;;;;;43.88;23.08;;;;;;;12.70;73.10;96257.53;5089223;28;20040;-78
2022/05/02 07:28:25;;;;;;;42.22;22.05;;;;;;;12.84;73.04;96256.44;5089806;28;20047;-77
2022/05/02 07:30:56;;;;;;;36.33;21.08;;;;;;;12.98;73.02;96248.78;5089194;28;20440;-77
2022/05/02 07:33:22;;;;;;;39.35;23.05;;;;;;;12.99;72.64;96248.44;5089424;28;20044;-76
2022/05/02 07:35:50;;;;;;;43.72;23.80;;;;;;;13.24;73.71;96249.34;5089529;28;20047;-77
2022/05/02 07:38:20;;;;;;;40.25;21.98;;;;;;;13.50;73.06;96251.00;5088942;28;20495;-77
2022/05/02 07:43:32;;;;;;;38.83;20.02;;;;;;;14.12;69.74;96243.63;5088291;28;20141;-79
2022/05/02 07:46:00;;;;;;;44.67;22.67;;;;;;;14.57;68.10;96238.03;5089117;28;20051;-77
2022/05/02 07:48:27;;;;;;;39.65;20.30;;;;;;;14.83;67.97;96241.13;5087865;28;20044;-78
2022/05/02 07:50:57;;;;;;;39.53;19.58;;;;;;;14.99;65.22;96246.69;5090027;28;20059;-77
2022/05/02 07:53:24;;;;;;;38.47;20.83;;;;;;;15.17;64.52;96249.91;5088589;28;20127;-75
2022/05/02 07:55:56;;;;;;;41.70;20.00;;;;;;;15.48;63.23;96249.16;5089649;28;20040;-76
2022/05/02 07:58:25;;;;;;;38.83;19.15;;;;;;;15.68;63.55;96254.81;5089060;28;20047;-75
2022/05/02 08:00:52;;;;;;;46.55;20.90;;;;;;;15.80;61.76;96252.75;5089171;28;20040;-76
2022/05/02 08:03:22;;;;;;;34.33;18.80;;;;;;;15.84;62.28;96255.59;5089123;28;20056;-76
2022/05/02 08:05:55;;;;;;;32.70;16.00;;;;;;;15.86;61.97;96251.34;5088806;28;20066;-75
2022/05/02 08:08:35;;;;;;;42.03;17.67;;;;;;;15.96;60.34;96254.72;5089417;28;20056;-76
2022/05/02 08:11:12;;;;;;;31.02;15.73;;;;;;;16.52;61.52;96257.22;5088423;28;20044;-77
2022/05/02 08:13:50;;;;;;;32.60;15.65;;;;;;;17.16;58.56;96253.09;5089018;28;20051;-77
2022/05/02 08:16:24;;;;;;;26.70;14.60;;;;;;;17.78;54.93;96250.34;5088632;28;20044;-78
2022/05/02 08:19:25;;;;;;;30.35;15.40;;;;;;;18.24;54.48;96245.59;5088745;28;20391;-77
2022/05/02 08:27:15;;;;;;;26.85;14.68;;;;;;;18.65;53.68;96245.81;5089490;28;20048;-76
2022/05/02 08:27:51;;;;;;;20.80;13.38;;;;;;;19.44;49.47;96233.78;5088928;28;20548;-76
2022/05/02 08:30:22;;;;;;;21.40;13.45;;;;;;;19.96;49.19;96237.47;5089021;28;20051;-74
2022/05/02 08:33:00;;;;;;;17.67;12.52;;;;;;;19.90;48.23;96237.03;5088552;28;20044;-74
2022/05/02 08:35:44;;;;;;;19.15;13.18;;;;;;;19.74;48.63;96233.75;5089511;28;20051;-73
2022/05/02 08:38:36;;;;;;;18.25;12.15;;;;;;;19.75;49.94;96235.31;5092617;28;20074;-75
2022/05/02 08:41:42;;;;;;;21.00;12.55;;;;;;;19.31;48.79;96238.75;5092184;28;20041;-74
2022/05/02 08:44:39;;;;;;;19.73;12.75;;;;;;;19.09;49.46;96234.19;5092769;28;20632;-75
2022/05/02 08:47:57;;;;;;;23.85;13.45;;;;;;;18.96;49.11;96231.66;5091939;28;20051;-74
2022/05/02 08:50:30;;;;;;;24.20;12.88;;;;;;;18.81;51.06;96235.41;5091659;28;20054;-74
2022/05/02 08:53:23;;;;;;;20.15;11.77;;;;;;;18.70;50.87;96229.75;5093376;28;20494;-74
2022/05/02 08:56:05;;;;;;;20.30;11.85;;;;;;;18.68;51.37;96231.28;5092268;28;20101;-74
2022/05/02 08:59:25;;;;;;;23.03;12.27;;;;;;;18.51;51.62;96233.41;5092348;28;20046;-74
2022/05/02 09:02:24;;;;;;;22.10;12.60;;;;;;;18.43;53.21;96228.97;5030182;28;20463;-74
2022/05/02 09:05:19;;;;;;;20.73;13.10;;;;;;;18.03;52.30;96223.22;5029169;28;20034;-74
2022/05/02 09:08:36;;;;;;;22.75;12.70;;;;;;;17.89;54.52;96237.53;5082397;28;20043;-75
2022/05/02 09:11:31;;;;;;;32.15;13.23;;;;;;;17.64;52.50;96234.31;5062658;28;20452;-75
2022/05/02 09:14:31;;;;;;;22.65;12.68;;;;;;;16.76;54.53;96236.94;5092376;28;20147;-76
2022/05/02 09:17:42;;;;;;;23.88;13.00;;;;;;;16.71;56.81;96238.03;5086162;28;20040;-77
2022/05/02 09:20:43;;;;;;;22.58;12.75;;;;;;;16.57;56.44;96232.19;5091742;28;20043;-76
2022/05/02 09:23:43;;;;;;;21.08;12.00;;;;;;;16.46;57.25;96233.91;5091775;28;20044;-76
2022/05/02 09:26:51;;;;;;;23.38;11.80;;;;;;;16.39;57.73;96232.59;5077738;28;20609;-76
2022/05/02 09:29:47;;;;;;;21.70;10.45;;;;;;;16.24;56.77;96225.19;5091487;28;20044;-76
2022/05/02 09:32:19;;;;;;;21.15;10.48;;;;;;;16.33;58.90;96222.22;5091655;28;20040;-75
2022/05/02 09:34:54;;;;;;;25.90;11.70;;;;;;;16.48;59.55;96224.16;5091296;28;20047;-75
2022/05/02 09:37:28;;;;;;;21.02;11.45;;;;;;;16.42;54.99;96226.38;5091861;28;20044;-75
2022/05/02 09:40:04;;;;;;;20.83;10.43;;;;;;;16.34;55.64;96224.66;5091341;28;20040;-75
2022/05/02 09:42:51;;;;;;;43.20;37.05;;;;;;;16.39;56.16;96221.63;5091678;28;20118;-75
2022/05/02 09:51:58;;;;;;;22.45;8.98;;;;;;;16.40;54.22;96222.41;5091299;28;20453;-76
2022/05/02 09:57:33;;;;;;;24.58;15.93;;;;;;;16.28;55.28;96209.56;5042963;28;20404;-75
2022/05/02 10:02:49;;;;;;;138.60;129.75;;;;;;;16.16;56.25;96215.97;5085544;28;20043;-75
2022/05/02 10:05:23;;;;;;;128.93;120.15;;;;;;;16.18;57.03;96210.94;5090592;28;20044;-76
2022/05/02 10:07:58;;;;;;;510.83;480.48;;;;;;;16.28;56.38;96208.78;5091366;28;20074;-75
2022/05/02 10:10:34;;;;;;;209.60;196.30;;;;;;;16.37;57.56;96212.91;5089886;28;20047;-75
2022/05/02 10:13:09;;;;;;;180.98;169.60;;;;;;;16.37;57.49;96210.16;5091524;28;20037;-75
2022/05/02 10:15:49;;;;;;;111.20;103.32;;;;;;;16.42;57.44;96209.88;5083425;28;20043;-76
2022/05/02 10:18:33;;;;;;;44.90;23.88;;;;;;;16.47;57.71;96211.56;5090427;28;20047;-76
2022/05/02 10:21:08;;;;;;;76.53;70.57;;;;;;;16.58;56.08;96212.59;5090988;28;20043;-76
2022/05/02 10:23:55;;;;;;;63.20;57.30;;;;;;;16.70;55.09;96208.91;5090372;28;20399;-75
2022/05/02 10:26:33;;;;;;;165.23;155.27;;;;;;;16.86;53.94;96209.69;5090954;28;20055;-76
2022/05/02 10:29:23;;;;;;;189.10;177.77;;;;;;;16.95;52.58;96210.25;5090178;28;20048;-76
2022/05/02 10:31:56;;;;;;;166.38;156.07;;;;;;;17.05;52.41;96202.56;5090381;28;20051;-75
2022/05/02 10:34:28;;;;;;;193.25;181.48;;;;;;;17.21;53.50;96195.81;5090444;28;20047;-76
2022/05/02 10:36:57;;;;;;;42.92;20.95;;;;;;;17.31;53.18;96199.91;5090110;28;20040;-75
2022/05/02 10:39:38;;;;;;;268.52;252.50;;;;;;;17.36;51.88;96196.88;5090671;28;20052;-75
2022/05/02 10:42:10;;;;;;;728.13;678.97;;;;;;;17.20;51.71;96194.22;5087332;28;20059;-77
2022/05/02 10:44:46;;;;;;;383.90;361.15;;;;;;;17.24;52.37;96193.50;5090528;28;20593;-75
2022/05/02 10:47:18;;;;;;;675.78;632.20;;;;;;;17.26;52.49;96191.16;5089517;28;20045;-76
2022/05/02 10:50:00;;;;;;;705.42;658.58;;;;;;;17.28;53.19;96184.16;5089937;28;20040;-75
2022/05/02 10:52:44;;;;;;;588.63;552.50;;;;;;;17.31;52.71;96188.91;5090189;28;20052;-76
2022/05/02 10:55:17;;;;;;;704.05;657.95;;;;;;;17.24;51.96;96183.28;5089152;28;20036;-76
2022/05/02 10:57:51;;;;;;;696.13;650.10;;;;;;;17.14;52.88;96173.66;5090473;28;20117;-76
2022/05/02 11:00:17;;;;;;;699.60;652.22;;;;;;;17.16;54.79;96176.06;5089188;28;20044;-75
2022/05/02 11:03:02;;;;;;;687.67;642.35;;;;;;;17.17;53.99;96177.63;5090012;28;20055;-75
2022/05/02 11:05:35;;;;;;;701.60;655.67;;;;;;;17.15;52.33;96174.47;5089554;28;20044;-76
2022/05/02 11:08:09;;;;;;;657.38;613.35;;;;;;;17.12;54.99;96176.00;5088955;28;20419;-76
2022/05/02 11:10:43;;;;;;;742.08;670.83;;;;;;;17.27;52.85;96171.53;5090520;28;20090;-76
2022/05/02 11:13:24;;;;;;;703.58;629.85;;;;;;;17.55;51.53;96173.22;5088412;28;20036;-75
2022/05/02 11:16:06;;;;;;;282.10;265.70;;;;;;;17.82;50.56;96161.09;5089873;28;20496;-76
2022/05/02 11:21:41;;;;;;;68.47;47.70;;;;;;;18.40;49.68;96166.28;5068537;28;20054;-75
2022/05/02 11:24:27;;;;;;;537.05;496.55;;;;;;;18.75;49.10;96162.44;5076019;28;20047;-74
2022/05/02 11:27:06;;;;;;;26.70;10.27;;;;;;;18.94;47.65;96162.25;5075724;28;20044;-75
2022/05/02 11:29:48;;;;;;;458.38;427.38;;;;;;;19.13;47.72;96158.53;5069266;28;20041;-75
2022/05/02 11:32:29;;;;;;;367.33;342.65;;;;;;;19.07;45.57;96153.75;5068781;28;20045;-74
2022/05/02 11:35:03;;;;;;;520.95;488.63;;;;;;;18.97;46.91;96158.75;5068539;28;20039;-75
2022/05/02 11:37:36;;;;;;;169.57;158.50;;;;;;;19.08;45.50;96156.09;5069272;28;20522;-75
2022/05/02 11:40:06;;;;;;;;;;;;;;;19.15;44.39;96149.88;5068965;28;20063;-75
2022/05/02 11:42:34;;;;;;;664.97;622.22;;;;;;;18.94;44.33;96151.22;5069736;28;20337;-75
2022/05/02 11:45:10;;;;;;;693.05;641.97;;;;;;;18.78;46.58;96154.19;5069246;28;20037;-74
2022/05/02 11:47:53;;;;;;;757.00;691.08;;;;;;;18.67;48.27;96144.16;5081983;28;20672;-76
2022/05/02 11:50:22;;;;;;;389.50;362.95;;;;;;;18.79;48.59;96146.69;5087655;28;20485;-75
2022/05/02 11:52:52;;;;;;;36.20;24.92;;;;;;;18.97;49.41;96128.41;5088921;28;20613;-75
2022/05/02 11:55:20;;;;;;;428.05;402.45;;;;;;;19.11;48.62;96133.28;5089198;28;20818;-74
2022/05/02 11:57:50;;;;;;;463.67;435.95;;;;;;;19.03;46.90;96132.41;5088325;28;20503;-75
2022/05/02 12:00:18;;;;;;;238.65;223.80;;;;;;;19.02;48.42;96125.31;5089008;28;20139;-75
2022/05/02 12:02:54;;;;;;;804.30;736.47;;;;;;;19.01;47.71;96129.25;5088182;28;20524;-75
2022/05/02 12:05:27;;;;;;;760.75;702.47;;;;;;;19.08;46.35;96133.25;5086060;28;20044;-75
2022/05/02 12:07:55;;;;;;;817.55;746.88;;;;;;;18.88;46.25;96130.66;5088959;28;20547;-75
2022/05/02 12:10:31;;;;;;;822.00;746.08;;;;;;;18.91;45.73;96121.63;5085378;28;20052;-74
2022/05/02 12:12:58;;;;;;;830.83;761.78;;;;;;;18.69;46.16;96120.59;5088988;28;20072;-74
2022/05/02 12:15:26;;;;;;;786.42;718.25;;;;;;;18.56;47.51;96123.94;5071356;28;20041;-74
2022/05/02 12:17:54;;;;;;;741.50;671.97;;;;;;;18.46;47.46;96126.19;5087230;28;20067;-75
2022/05/02 12:20:30;;;;;;;790.22;712.75;;;;;;;18.35;47.63;96125.25;5090193;28;20089;-75
2022/05/02 12:23:00;;;;;;;765.72;689.05;;;;;;;18.23;47.28;96112.50;5092153;28;20677;-75
2022/05/02 12:25:29;;;;;;;758.40;685.85;;;;;;;18.19;49.10;96106.16;5092253;28;20162;-74